createdAt,value
2018-07-25T00:01:38.443Z,10.67
2018-07-25T00:07:07.678Z,9.87
2018-07-25T00:12:36.943Z,10.80
2018-07-25T00:18:06.150Z,11.60
2018-07-25T00:23:35.441Z,10.67
2018-07-25T00:29:04.840Z,10.37
2018-07-25T00:34:34.088Z,9.70
2018-07-25T00:40:03.404Z,10.50
2018-07-25T00:45:32.785Z,10.43
2018-07-25T00:51:02.044Z,9.90
2018-07-25T00:56:31.340Z,10.43
2018-07-25T01:02:00.560Z,9.80
2018-07-25T01:07:29.850Z,9.70
2018-07-25T01:12:59.087Z,9.83
2018-07-25T01:18:29.264Z,9.87
2018-07-25T01:23:58.607Z,9.78
2018-07-25T01:29:27.874Z,9.47
2018-07-25T01:34:57.162Z,9.40
2018-07-25T01:40:26.513Z,10.43
2018-07-25T01:45:55.809Z,9.43
2018-07-25T01:51:25.054Z,9.45
2018-07-25T01:56:54.348Z,8.10
2018-07-25T02:02:23.592Z,9.30
2018-07-25T02:07:52.959Z,9.05
2018-07-25T02:13:22.241Z,10.27
2018-07-25T02:18:51.656Z,10.03
2018-07-25T02:24:20.865Z,10.38
2018-07-25T02:29:50.279Z,10.00
2018-07-25T02:35:19.634Z,10.30
2018-07-25T02:40:48.898Z,9.45
2018-07-25T02:46:18.201Z,9.23
2018-07-25T02:51:47.516Z,10.18
2018-07-25T02:57:16.816Z,10.00
2018-07-25T03:02:46.073Z,9.00
2018-07-25T03:08:15.409Z,10.30
2018-07-25T03:13:44.715Z,9.75
2018-07-25T03:19:13.983Z,9.73
2018-07-25T03:24:44.360Z,9.93
2018-07-25T03:30:13.593Z,10.13
2018-07-25T03:35:42.894Z,8.85
2018-07-25T03:41:12.141Z,10.13
2018-07-25T03:46:41.358Z,10.23
2018-07-25T03:52:10.664Z,9.67
2018-07-25T03:57:39.952Z,9.95
2018-07-25T04:03:09.214Z,9.53
2018-07-25T04:08:38.429Z,9.28
2018-07-25T04:14:07.629Z,10.30
2018-07-25T04:19:36.892Z,8.83
2018-07-25T04:25:06.288Z,9.53
2018-07-25T04:30:35.601Z,8.73
2018-07-25T04:36:04.944Z,9.30
2018-07-25T04:41:34.241Z,8.83
2018-07-25T04:47:03.498Z,8.40
2018-07-25T04:52:32.876Z,8.63
2018-07-25T04:58:02.232Z,9.00
2018-07-25T05:03:31.588Z,7.80
2018-07-25T05:09:00.791Z,8.30
2018-07-25T05:14:30.184Z,8.20
2018-07-25T05:19:59.412Z,7.87
2018-07-25T05:25:28.690Z,8.50
2018-07-25T05:30:58.029Z,8.13
2018-07-25T05:36:27.271Z,7.50
2018-07-25T05:41:56.529Z,8.03
2018-07-25T05:47:25.796Z,7.62
2018-07-25T05:52:55.198Z,6.90
2018-07-25T05:58:24.477Z,7.65
2018-07-25T06:03:53.742Z,7.33
2018-07-25T06:09:22.995Z,8.70
2018-07-25T06:14:52.290Z,7.62
2018-07-25T06:20:21.317Z,7.75
2018-07-25T06:25:50.635Z,6.58
2018-07-25T06:31:19.977Z,8.83
2018-07-25T06:36:49.275Z,7.67
2018-07-25T06:42:19.578Z,6.40
2018-07-25T06:47:48.930Z,6.00
2018-07-25T06:53:18.123Z,6.30
2018-07-25T06:58:47.462Z,7.30
2018-07-25T07:04:16.703Z,6.60
2018-07-25T07:09:45.945Z,6.60
2018-07-25T07:15:15.235Z,7.62
2018-07-25T07:20:44.422Z,6.25
2018-07-25T07:26:13.687Z,6.78
2018-07-25T07:31:42.948Z,5.83
2018-07-25T07:37:12.195Z,6.00
2018-07-25T07:42:41.512Z,6.50
2018-07-25T07:48:10.907Z,5.90
2018-07-25T07:53:40.120Z,6.00
2018-07-25T07:59:09.326Z,5.92
2018-07-25T08:04:38.577Z,5.60
2018-07-25T08:10:07.826Z,6.40
2018-07-25T08:15:37.115Z,6.30
2018-07-25T08:21:06.089Z,6.47
2018-07-25T08:26:35.329Z,6.03
2018-07-25T08:32:04.593Z,6.37
2018-07-25T08:37:33.847Z,5.90
2018-07-25T08:43:03.007Z,6.25
2018-07-25T08:48:32.703Z,6.00
2018-07-25T08:54:01.973Z,6.05
2018-07-25T08:59:31.221Z,6.20
2018-07-25T09:05:00.409Z,5.75
2018-07-25T09:10:29.675Z,5.70
2018-07-25T09:15:58.943Z,6.20
2018-07-25T09:21:28.180Z,6.50
2018-07-25T09:26:57.398Z,5.87
2018-07-25T09:32:26.638Z,6.63
2018-07-25T09:37:55.933Z,6.53
2018-07-25T09:43:25.138Z,6.40
2018-07-25T09:48:54.516Z,5.85
2018-07-25T09:54:23.786Z,5.47
2018-07-25T09:59:53.045Z,5.20
2018-07-25T10:05:22.272Z,5.50
2018-07-25T10:10:51.531Z,5.78
2018-07-25T10:16:20.886Z,5.40
2018-07-25T10:21:50.420Z,5.63
2018-07-25T10:27:19.735Z,5.07
2018-07-25T10:32:48.809Z,5.40
2018-07-25T10:38:18.488Z,5.73
2018-07-25T10:43:47.772Z,6.20
2018-07-25T10:49:17.042Z,5.83
2018-07-25T10:54:46.438Z,5.40
2018-07-25T11:00:15.670Z,4.70
2018-07-25T11:05:44.891Z,4.83
2018-07-25T11:11:14.148Z,5.40
2018-07-25T11:16:43.477Z,6.20
2018-07-25T11:22:12.844Z,5.00
2018-07-25T11:27:42.198Z,6.17
2018-07-25T11:33:11.454Z,4.60
2018-07-25T11:38:40.813Z,4.37
2018-07-25T11:44:10.161Z,4.23
2018-07-25T11:49:40.530Z,4.33
2018-07-25T11:55:09.724Z,5.13
2018-07-25T12:00:39.057Z,4.50
2018-07-25T12:06:08.387Z,4.60
2018-07-25T12:11:42.996Z,4.37
2018-07-25T12:17:12.439Z,4.40
2018-07-25T12:22:41.723Z,4.70
2018-07-25T12:28:11.165Z,4.53
2018-07-25T12:33:40.498Z,4.20
2018-07-25T12:39:10.590Z,3.57
2018-07-25T12:44:39.885Z,3.67
2018-07-25T12:50:09.151Z,3.93
2018-07-25T12:55:38.467Z,3.80
2018-07-25T13:01:07.721Z,3.50
2018-07-25T13:06:36.958Z,3.80
2018-07-25T13:12:06.296Z,3.93
2018-07-25T13:17:35.733Z,3.60
2018-07-25T13:23:05.092Z,4.53
2018-07-25T13:28:34.571Z,3.12
2018-07-25T13:34:03.828Z,3.83
2018-07-25T13:39:33.223Z,4.70
2018-07-25T13:45:02.496Z,4.03
2018-07-25T13:50:31.695Z,4.42
2018-07-25T13:56:00.916Z,3.90
2018-07-25T14:01:30.205Z,3.52
2018-07-25T14:06:59.380Z,4.23
2018-07-25T14:12:28.622Z,3.93
2018-07-25T14:17:58.925Z,4.57
2018-07-25T14:23:28.235Z,3.80
2018-07-25T14:28:57.568Z,3.60
2018-07-25T14:34:27.639Z,3.98
2018-07-25T14:39:57.079Z,3.70
2018-07-25T14:45:26.290Z,3.33
2018-07-25T14:50:55.527Z,3.60
2018-07-25T14:56:24.757Z,4.50
2018-07-25T15:01:54.215Z,4.23
2018-07-25T15:07:23.590Z,4.50
2018-07-25T15:12:56.985Z,4.47
2018-07-25T15:18:26.456Z,4.62
2018-07-25T15:24:02.534Z,4.00
2018-07-25T15:29:31.775Z,4.22
2018-07-25T15:35:00.965Z,4.10
2018-07-25T15:40:30.168Z,4.57
2018-07-25T15:46:00.019Z,5.27
2018-07-25T15:51:29.393Z,4.60
2018-07-25T15:56:58.646Z,5.13
2018-07-25T16:02:27.961Z,4.73
2018-07-25T16:07:57.243Z,5.50
2018-07-25T16:13:26.689Z,4.90
2018-07-25T16:18:56.117Z,5.27
2018-07-25T16:24:25.427Z,5.33
2018-07-25T16:29:54.798Z,5.13
2018-07-25T16:35:24.104Z,4.50
2018-07-25T16:40:53.471Z,3.27
2018-07-25T16:46:23.009Z,3.50
2018-07-25T16:51:52.448Z,3.90
2018-07-25T16:57:21.794Z,4.00
2018-07-25T17:02:51.951Z,4.40
2018-07-25T17:08:21.106Z,4.62
2018-07-25T17:13:50.524Z,4.77
2018-07-25T17:19:21.082Z,4.70
2018-07-25T17:24:50.448Z,4.40
2018-07-25T17:30:19.964Z,3.85
2018-07-25T17:35:49.470Z,3.67
2018-07-25T17:41:19.380Z,4.90
2018-07-25T17:46:49.574Z,5.63
2018-07-25T17:52:18.981Z,4.90
2018-07-25T17:57:48.310Z,4.20
2018-07-25T18:03:17.715Z,4.20
2018-07-25T18:08:46.964Z,4.53
2018-07-25T18:14:16.983Z,4.60
2018-07-25T18:19:46.546Z,4.90
2018-07-25T18:25:15.907Z,5.90
2018-07-25T18:30:45.101Z,5.97
2018-07-25T18:36:16.264Z,6.00
2018-07-25T18:41:45.597Z,5.43
2018-07-25T18:47:15.010Z,5.80
2018-07-25T18:52:44.404Z,5.07
2018-07-25T18:58:13.876Z,6.20
2018-07-25T19:03:43.187Z,5.80
2018-07-25T19:09:16.736Z,5.77
2018-07-25T19:14:51.424Z,4.70
2018-07-25T19:20:21.285Z,5.12
2018-07-25T19:25:50.827Z,5.60
2018-07-25T19:31:20.208Z,5.42
2018-07-25T19:36:49.694Z,5.93
2018-07-25T19:42:19.929Z,5.27
2018-07-25T19:47:49.445Z,6.10
2018-07-25T19:53:18.940Z,7.80
2018-07-25T19:58:48.303Z,7.87
2018-07-25T20:04:17.719Z,6.90
2018-07-25T20:09:46.972Z,5.93
2018-07-25T20:15:21.662Z,6.53
2018-07-25T20:20:51.115Z,6.87
2018-07-25T20:26:20.511Z,6.50
2018-07-25T20:31:50.057Z,6.87
2018-07-25T20:37:19.435Z,6.47
2018-07-25T20:42:48.938Z,5.72
2018-07-25T20:48:18.427Z,6.25
2018-07-25T20:53:47.823Z,7.27
2018-07-25T20:59:17.571Z,6.53
2018-07-25T21:04:47.239Z,7.80
2018-07-25T21:10:16.621Z,7.12
2018-07-25T21:15:45.970Z,7.90
2018-07-25T21:21:15.436Z,7.27
2018-07-25T21:26:44.763Z,7.83
2018-07-25T21:32:14.084Z,7.57
2018-07-25T21:37:43.368Z,7.87
2018-07-25T21:43:12.816Z,7.50
2018-07-25T21:48:42.079Z,7.50
2018-07-25T21:54:11.553Z,7.10
2018-07-25T21:59:40.871Z,6.93
2018-07-25T22:05:10.161Z,6.20
2018-07-25T22:10:39.155Z,7.23
2018-07-25T22:16:08.535Z,7.40
2018-07-25T22:21:37.814Z,6.40
2018-07-25T22:27:08.155Z,6.67
2018-07-25T22:32:37.421Z,7.30
2018-07-25T22:38:06.793Z,6.83
2018-07-25T22:43:36.174Z,7.10
2018-07-25T22:49:05.458Z,7.20
2018-07-25T22:54:34.815Z,7.03
2018-07-25T23:00:04.816Z,8.43
2018-07-25T23:05:34.053Z,7.73
2018-07-25T23:11:03.402Z,7.97
2018-07-25T23:16:33.163Z,7.37
2018-07-25T23:22:02.410Z,7.08
2018-07-25T23:27:31.720Z,6.95
2018-07-25T23:33:00.943Z,7.10
2018-07-25T23:38:30.212Z,7.25
2018-07-25T23:43:59.443Z,6.85
2018-07-25T23:49:28.792Z,7.15
2018-07-25T23:54:58.150Z,6.78
